Time;durP1;ratioP1;P1;durP2;ratioP2;P2;SDS_P1;SDS_P2;PMS_P1;PMS_P2;Temp;Humidity;BMP_temperature;BMP_pressure;BME280_temperature;BME280_humidity;BME280_pressure;Samples;Min_cycle;Max_cycle;Signal;HPM_P1;HPM_P2
2023/10/16 00:01:17;;;;;;;6.05;1.52;;;;;;;5.14;100.00;101655.66;4970759;28;20740;-48
2023/10/16 00:03:43;;;;;;;4.85;1.40;;;;;;;5.12;100.00;101655.66;4971979;28;20206;-49
2023/10/16 00:06:13;;;;;;;11.50;1.70;;;;;;;5.09;100.00;101652.97;4972808;28;20175;-47
2023/10/16 00:08:48;;;;;;;6.40;1.23;;;;;;;5.10;100.00;101654.75;4972910;28;20174;-48
2023/10/16 00:11:18;;;;;;;10.18;1.42;;;;;;;5.07;100.00;101657.44;4970118;28;20201;-48
2023/10/16 00:13:47;;;;;;;4.50;1.60;;;;;;;5.08;100.00;101645.03;4970180;28;20286;-49
2023/10/16 00:16:17;;;;;;;7.68;1.65;;;;;;;4.97;100.00;101637.09;4969058;28;20186;-49
2023/10/16 00:18:45;;;;;;;7.93;1.75;;;;;;;5.00;100.00;101630.88;4971423;28;20819;-47
2023/10/16 00:21:13;;;;;;;10.75;1.40;;;;;;;5.01;100.00;101640.59;4971505;28;20166;-48
2023/10/16 00:23:40;;;;;;;6.63;1.55;;;;;;;4.95;100.00;101652.16;4967431;28;20268;-47
2023/10/16 00:26:10;;;;;;;7.15;1.40;;;;;;;4.97;100.00;101641.53;4966022;28;20641;-47
2023/10/16 00:28:45;;;;;;;6.85;1.23;;;;;;;5.03;100.00;101654.75;4971746;28;20276;-46
2023/10/16 00:31:14;;;;;;;8.18;1.50;;;;;;;5.01;100.00;101656.53;4960245;28;20330;-47
2023/10/16 00:33:40;;;;;;;14.32;1.95;;;;;;;4.98;100.00;101662.75;4968969;28;20185;-47
2023/10/16 00:36:06;;;;;;;4.80;1.48;;;;;;;4.98;100.00;101646.81;4972354;28;20281;-48
2023/10/16 00:38:37;;;;;;;5.15;1.33;;;;;;;4.97;100.00;101641.53;4972130;28;20212;-48
2023/10/16 00:41:46;;;;;;;9.98;1.63;;;;;;;5.04;100.00;101646.81;4955734;28;20271;-47
2023/10/16 00:43:51;;;;;;;4.00;1.20;;;;;;;4.95;100.00;101634.44;4959825;28;20517;-47
2023/10/16 00:46:25;;;;;;;8.88;1.10;;;;;;;4.93;100.00;101635.31;4964774;28;20195;-50
2023/10/16 00:48:52;;;;;;;6.05;1.33;;;;;;;4.87;100.00;101633.56;4972972;28;20183;-48
2023/10/16 00:51:19;;;;;;;7.18;1.33;;;;;;;4.87;100.00;101641.50;4955576;28;20187;-47
2023/10/16 00:53:45;;;;;;;3.92;1.30;;;;;;;4.87;100.00;101638.88;4974007;28;20273;-48
2023/10/16 00:56:15;;;;;;;6.28;1.10;;;;;;;4.89;100.00;101642.41;4970028;28;20175;-49
2023/10/16 00:58:42;;;;;;;2.95;1.25;;;;;;;4.92;100.00;101644.19;4960575;28;20648;-47
2023/10/16 01:01:12;;;;;;;9.32;1.23;;;;;;;4.86;100.00;101638.88;4971228;28;20173;-48
2023/10/16 01:03:44;;;;;;;8.77;1.23;;;;;;;4.89;100.00;101647.72;4960643;28;20264;-48
2023/10/16 01:06:36;;;;;;;5.78;1.40;;;;;;;4.90;100.00;101648.63;4957406;28;20185;-48
2023/10/16 01:09:09;;;;;;;10.57;1.27;;;;;;;4.95;100.00;101649.50;4972974;28;20166;-48
2023/10/16 01:11:38;;;;;;;2.53;0.90;;;;;;;4.88;100.00;101648.63;4969167;28;20615;-47
2023/10/16 01:14:07;;;;;;;8.98;1.10;;;;;;;4.90;100.00;101646.84;4966945;28;20190;-47
2023/10/16 01:16:33;;;;;;;6.45;1.27;;;;;;;4.91;100.00;101642.41;4956839;28;20193;-50
2023/10/16 01:19:06;;;;;;;5.50;1.30;;;;;;;4.98;100.00;101645.94;4968687;28;20735;-48
2023/10/16 01:21:32;;;;;;;6.80;1.35;;;;;;;4.92;100.00;101649.50;4972610;28;20186;-46
2023/10/16 01:24:32;;;;;;;8.13;1.20;;;;;;;4.92;100.00;101658.34;4968317;28;20243;-47
2023/10/16 01:26:50;;;;;;;10.40;1.65;;;;;;;4.94;100.00;101667.19;4967933;28;20257;-47
2023/10/16 01:29:16;;;;;;;2.00;0.73;;;;;;;4.91;100.00;101658.34;4970373;28;20638;-48
2023/10/16 01:31:47;;;;;;;7.13;1.13;;;;;;;4.96;100.00;101659.22;4969445;28;20194;-51
2023/10/16 01:34:13;;;;;;;9.32;1.42;;;;;;;4.95;100.00;101646.81;4966747;28;20664;-47
2023/10/16 01:36:46;;;;;;;8.20;1.30;;;;;;;4.92;100.00;101662.78;4956859;28;20181;-47
2023/10/16 01:39:47;;;;;;;2.90;0.90;;;;;;;4.84;100.00;101646.84;4970381;28;20562;-49
2023/10/16 01:42:23;;;;;;;6.75;1.13;;;;;;;4.87;100.00;101649.47;4954289;28;20312;-47
2023/10/16 01:44:52;;;;;;;5.15;1.10;;;;;;;4.88;100.00;101650.41;4947942;28;20699;-49
2023/10/16 01:47:18;;;;;;;4.93;1.00;;;;;;;4.85;100.00;101651.25;4964848;28;20178;-47
2023/10/16 01:49:50;;;;;;;3.45;0.93;;;;;;;4.78;100.00;101649.50;4966088;28;20660;-50
2023/10/16 01:52:16;;;;;;;2.95;0.90;;;;;;;4.80;100.00;101649.50;4963958;28;20178;-48
2023/10/16 01:54:46;;;;;;;5.93;1.27;;;;;;;4.83;100.00;101657.47;4966432;28;20707;-48
2023/10/16 01:57:13;;;;;;;10.55;1.65;;;;;;;4.81;100.00;101649.53;4948237;28;20477;-47
2023/10/16 01:59:47;;;;;;;4.00;1.42;;;;;;;4.70;100.00;101659.22;4956640;28;20293;-47
2023/10/16 02:02:13;;;;;;;7.75;1.33;;;;;;;4.73;100.00;101659.25;4954335;28;20197;-47
2023/10/16 02:04:40;;;;;;;8.20;1.02;;;;;;;4.80;100.00;101654.81;4964912;28;20288;-48
2023/10/16 02:07:09;;;;;;;1.35;0.77;;;;;;;4.77;100.00;101650.41;4961377;28;20190;-48
2023/10/16 02:09:39;;;;;;;2.80;0.80;;;;;;;4.74;100.00;101661.91;4953919;28;20174;-49
2023/10/16 02:12:10;;;;;;;3.33;0.90;;;;;;;4.73;100.00;101651.28;4965263;28;20197;-47
2023/10/16 02:14:39;;;;;;;4.90;0.90;;;;;;;4.69;100.00;101652.16;4953536;28;20206;-48
2023/10/16 02:17:10;;;;;;;4.30;1.08;;;;;;;4.72;100.00;101662.78;4946538;28;20186;-48
2023/10/16 02:19:43;;;;;;;5.82;1.30;;;;;;;4.72;100.00;101673.41;4964615;28;20241;-48
2023/10/16 02:22:09;;;;;;;2.38;0.95;;;;;;;4.79;100.00;101664.56;4965455;28;20649;-45
2023/10/16 02:24:37;;;;;;;3.83;1.38;;;;;;;4.70;100.00;101672.50;4966159;28;20209;-47
2023/10/16 02:27:12;;;;;;;4.95;1.00;;;;;;;4.74;100.00;101666.31;4967578;28;20605;-47
2023/10/16 02:29:52;;;;;;;3.88;1.27;;;;;;;4.70;100.00;101681.38;4962750;28;20241;-49
2023/10/16 02:32:17;;;;;;;7.75;0.90;;;;;;;4.67;100.00;101681.38;4955538;28;20170;-48
2023/10/16 02:34:43;;;;;;;3.70;0.70;;;;;;;4.75;100.00;101686.69;4950435;28;20241;-47
2023/10/16 02:37:14;;;;;;;5.55;1.20;;;;;;;4.70;100.00;101689.34;4962381;28;20682;-46
2023/10/16 02:39:41;;;;;;;1.98;0.93;;;;;;;4.69;100.00;101694.66;4962407;28;20215;-47
2023/10/16 02:42:12;;;;;;;4.90;0.98;;;;;;;4.72;100.00;101690.22;4964057;28;20650;-48
2023/10/16 02:44:42;;;;;;;3.25;0.95;;;;;;;4.68;100.00;101695.50;4965014;28;20620;-48
2023/10/16 02:47:14;;;;;;;4.22;1.10;;;;;;;4.74;100.00;101700.81;4960682;28;20707;-48
2023/10/16 02:49:47;;;;;;;4.30;0.88;;;;;;;4.64;100.00;101693.78;4964865;28;20181;-49
2023/10/16 02:52:17;;;;;;;2.33;0.98;;;;;;;4.71;100.00;101699.06;4962540;28;20186;-49
2023/10/16 02:54:43;;;;;;;3.58;1.13;;;;;;;4.71;100.00;101693.75;4954318;28;20197;-47
2023/10/16 02:57:10;;;;;;;6.45;0.90;;;;;;;4.61;100.00;101694.63;4954703;28;20201;-48
2023/10/16 02:59:43;;;;;;;2.17;0.60;;;;;;;4.60;100.00;101699.97;4931547;28;20214;-47
2023/10/16 03:02:17;;;;;;;4.78;1.05;;;;;;;4.60;100.00;101705.25;4961387;28;20182;-48
2023/10/16 03:04:48;;;;;;;3.58;0.95;;;;;;;4.56;100.00;101690.22;4965154;28;20212;-48
2023/10/16 03:07:14;;;;;;;7.65;0.93;;;;;;;4.58;100.00;101697.28;4947772;28;20273;-49
2023/10/16 03:09:43;;;;;;;6.78;0.90;;;;;;;4.60;100.00;101703.50;4959458;28;20265;-49
2023/10/16 03:12:09;;;;;;;10.02;1.30;;;;;;;4.68;100.00;101700.81;4958997;28;20170;-49
2023/10/16 03:14:45;;;;;;;7.47;0.98;;;;;;;4.72;100.00;101691.97;4959819;28;20704;-54
2023/10/16 03:17:18;;;;;;;8.77;1.25;;;;;;;4.70;100.00;101701.72;4964487;28;20177;-47
2023/10/16 03:19:48;;;;;;;5.50;1.15;;;;;;;4.68;100.00;101703.47;4952430;28;20205;-49
2023/10/16 03:22:15;;;;;;;5.00;0.88;;;;;;;4.67;100.00;101704.38;4960075;28;20184;-48
2023/10/16 03:24:40;;;;;;;7.15;1.48;;;;;;;4.78;100.00;101718.53;4959111;28;20205;-47
2023/10/16 03:27:09;;;;;;;3.25;0.70;;;;;;;4.73;100.00;101707.03;4963174;28;20257;-50
2023/10/16 03:29:35;;;;;;;3.25;0.90;;;;;;;4.77;100.00;101700.84;4964223;28;20187;-48
2023/10/16 03:32:02;;;;;;;6.07;0.73;;;;;;;4.74;100.00;101709.69;4963611;28;20190;-47
2023/10/16 03:34:28;;;;;;;4.65;0.80;;;;;;;4.75;100.00;101715.88;4962738;28;20225;-47
2023/10/16 03:37:01;;;;;;;2.45;0.82;;;;;;;4.81;100.00;101713.25;4960604;28;20186;-50
2023/10/16 03:39:26;;;;;;;4.32;1.02;;;;;;;4.85;100.00;101717.63;4962767;28;20217;-48
2023/10/16 03:41:52;;;;;;;4.82;1.15;;;;;;;4.90;100.00;101715.00;4960278;28;20521;-48
2023/10/16 03:44:19;;;;;;;5.43;1.40;;;;;;;5.01;100.00;101720.28;4961552;28;20210;-47
2023/10/16 03:46:46;;;;;;;4.60;1.27;;;;;;;5.02;100.00;101719.41;4961899;28;20210;-48
2023/10/16 03:49:14;;;;;;;5.05;1.25;;;;;;;5.04;100.00;101726.47;4966940;28;20185;-48
2023/10/16 03:51:40;;;;;;;7.20;1.17;;;;;;;5.04;100.00;101722.94;4959681;28;20576;-48
2023/10/16 03:54:05;;;;;;;6.93;1.35;;;;;;;5.06;100.00;101715.88;4964228;28;20202;-49
2023/10/16 03:56:31;;;;;;;2.80;1.58;;;;;;;5.11;100.00;101724.69;4971086;28;20636;-48
2023/10/16 03:58:57;;;;;;;5.05;1.13;;;;;;;5.10;100.00;101726.47;4971239;28;20190;-49
2023/10/16 04:01:29;;;;;;;4.68;0.90;;;;;;;5.10;100.00;101725.59;4966082;28;20185;-49
2023/10/16 04:03:57;;;;;;;4.95;1.00;;;;;;;5.18;100.00;101723.78;4961422;28;20690;-49
2023/10/16 04:06:25;;;;;;;7.80;1.10;;;;;;;5.10;100.00;101726.47;4960789;28;20185;-48
2023/10/16 04:08:53;;;;;;;8.48;1.52;;;;;;;5.07;100.00;101725.59;4969609;28;20185;-50
2023/10/16 04:11:20;;;;;;;2.05;1.13;;;;;;;5.00;100.00;101727.38;4966622;28;20171;-48
2023/10/16 04:13:48;;;;;;;3.88;1.35;;;;;;;5.10;100.00;101731.78;4964503;28;20261;-49
2023/10/16 04:21:43;;;;;;;5.95;1.15;;;;;;;5.06;100.00;101726.50;4964636;28;20170;-47
2023/10/16 04:27:29;;;;;;;5.97;1.48;;;;;;;5.09;100.00;101721.16;4962934;28;20257;-48
2023/10/16 04:29:49;;;;;;;6.75;1.45;;;;;;;5.10;100.00;101725.59;4962739;28;20266;-49
2023/10/16 04:38:27;;;;;;;17.45;1.50;;;;;;;5.09;100.00;101729.13;4966356;28;20319;-49
2023/10/16 04:46:20;;;;;;;3.50;1.20;;;;;;;5.10;100.00;101714.97;4968501;28;20549;-48
2023/10/16 04:48:54;;;;;;;4.50;1.25;;;;;;;5.12;100.00;101711.44;4965589;28;20285;-50
2023/10/16 04:51:23;;;;;;;4.82;1.38;;;;;;;5.05;100.00;101716.72;4973981;28;20224;-46
2023/10/16 04:53:59;;;;;;;7.80;1.33;;;;;;;5.07;100.00;101710.56;4969304;28;20460;-48
2023/10/16 04:59:37;;;;;;;1.60;0.90;;;;;;;5.09;100.00;101719.38;4967850;28;20253;-49
2023/10/16 05:02:11;;;;;;;5.32;1.65;;;;;;;5.08;100.00;101727.38;4969435;28;20196;-50
2023/10/16 05:04:59;;;;;;;4.90;2.55;;;;;;;5.10;100.00;101720.28;4970071;28;20209;-48
2023/10/16 05:10:18;;;;;;;8.70;2.10;;;;;;;5.04;100.00;101722.94;4965386;28;20170;-50
2023/10/16 05:18:43;;;;;;;2.30;1.48;;;;;;;4.87;100.00;101715.84;4969151;28;20264;-49
2023/10/16 06:15:59;;;;;;;7.53;5.60;;;;;;;5.05;100.00;101776.06;4955228;28;20206;-49
2023/10/16 06:18:30;;;;;;;6.03;3.55;;;;;;;5.17;100.00;101775.16;4977660;28;20726;-50
2023/10/16 06:21:00;;;;;;;7.10;2.05;;;;;;;5.15;100.00;101771.63;4966800;28;20192;-47
2023/10/16 06:23:28;;;;;;;7.78;3.67;;;;;;;5.15;100.00;101771.63;4968444;28;20234;-50
2023/10/16 06:25:54;;;;;;;4.75;3.55;;;;;;;5.16;100.00;101792.00;4963124;28;20186;-48
2023/10/16 06:28:21;;;;;;;7.78;3.88;;;;;;;5.20;100.00;101791.09;4968836;28;20614;-49
2023/10/16 06:30:47;;;;;;;6.90;1.52;;;;;;;5.21;100.00;101784.91;4968679;28;20648;-48
2023/10/16 06:33:14;;;;;;;8.07;2.08;;;;;;;5.28;100.00;101791.97;4966971;28;20184;-46
2023/10/16 06:35:41;;;;;;;7.22;2.58;;;;;;;5.32;100.00;101795.53;4965752;28;20615;-46
2023/10/16 06:38:11;;;;;;;5.85;1.67;;;;;;;5.35;100.00;101796.41;4966340;28;20537;-47
2023/10/16 06:40:40;;;;;;;6.88;1.35;;;;;;;5.36;100.00;101795.53;4967942;28;20177;-47
2023/10/16 06:43:09;;;;;;;3.30;1.65;;;;;;;5.43;100.00;101798.19;4967904;28;20198;-48
2023/10/16 06:45:42;;;;;;;5.78;2.47;;;;;;;5.45;100.00;101802.59;4955035;28;20185;-47
2023/10/16 06:48:15;;;;;;;5.72;2.30;;;;;;;5.51;100.00;101807.00;4967583;28;20244;-52
2023/10/16 06:51:07;;;;;;;5.63;2.63;;;;;;;5.66;100.00;101806.97;4971027;28;20190;-46
2023/10/16 06:53:30;;;;;;;5.47;2.53;;;;;;;5.92;100.00;101798.94;4973197;28;20205;-48
2023/10/16 06:55:55;;;;;;;11.57;8.57;;;;;;;6.25;100.00;101791.72;4966046;28;20191;-49
2023/10/16 06:58:21;;;;;;;6.47;5.95;;;;;;;6.22;100.00;101793.53;4971506;28;20273;-47
2023/10/16 07:00:52;;;;;;;9.27;4.70;;;;;;;6.56;100.00;101800.47;4972262;28;20784;-48
2023/10/16 07:03:17;;;;;;;12.23;9.70;;;;;;;6.58;100.00;101790.69;4972926;28;20192;-47
2023/10/16 07:05:43;;;;;;;13.90;12.70;;;;;;;6.79;100.00;101781.66;4966418;28;20235;-49
2023/10/16 07:08:16;;;;;;;13.68;10.65;;;;;;;6.58;100.00;101789.78;4969770;28;20178;-48
2023/10/16 07:10:51;;;;;;;10.98;4.45;;;;;;;6.50;100.00;101784.50;4956900;28;20280;-46
2023/10/16 07:13:26;;;;;;;26.80;21.95;;;;;;;6.50;100.00;101792.50;4970678;28;20705;-48
2023/10/16 07:15:59;;;;;;;19.25;7.50;;;;;;;6.48;100.00;101785.41;4970438;28;20649;-47
2023/10/16 07:18:26;;;;;;;10.70;3.72;;;;;;;6.58;100.00;101781.78;4968478;28;20665;-47
2023/10/16 07:20:59;;;;;;;8.80;7.70;;;;;;;6.50;100.00;101776.53;4964504;28;20686;-47
2023/10/16 07:23:34;;;;;;;12.32;6.70;;;;;;;6.60;100.00;101783.56;4967235;28;20202;-48
2023/10/16 07:26:08;;;;;;;10.82;9.93;;;;;;;6.78;100.00;101774.56;4965567;28;20193;-48
2023/10/16 07:28:35;;;;;;;12.05;11.10;;;;;;;7.14;100.00;101777.81;4948877;28;20212;-50
2023/10/16 07:31:02;;;;;;;14.82;13.85;;;;;;;7.25;100.00;101783.06;4951740;28;20638;-48
2023/10/16 07:33:29;;;;;;;7.72;2.58;;;;;;;7.34;100.00;101780.28;4964798;28;20215;-49
2023/10/16 07:35:58;;;;;;;6.80;2.08;;;;;;;7.31;100.00;101772.34;4964154;28;20182;-48
2023/10/16 07:38:26;;;;;;;4.38;2.72;;;;;;;7.39;100.00;101775.81;4967802;28;20214;-48
2023/10/16 07:40:52;;;;;;;5.78;5.25;;;;;;;7.47;100.00;101780.19;4966081;28;20202;-49
2023/10/16 07:43:18;;;;;;;5.85;2.05;;;;;;;7.53;100.00;101778.34;4964820;28;20178;-48
2023/10/16 07:45:45;;;;;;;5.07;2.67;;;;;;;7.62;100.00;101777.34;4974528;28;20239;-49
2023/10/16 07:48:27;;;;;;;5.88;4.95;;;;;;;7.77;100.00;101782.53;4969609;28;20182;-49
2023/10/16 07:50:53;;;;;;;11.98;10.13;;;;;;;7.56;100.00;101796.97;4966943;28;20218;-48
2023/10/16 07:53:19;;;;;;;5.40;2.05;;;;;;;7.47;100.00;101799.72;4972142;28;20645;-50
2023/10/16 07:55:51;;;;;;;8.40;5.88;;;;;;;7.48;100.00;101795.28;4974378;28;20265;-49
2023/10/16 07:58:33;;;;;;;3.38;1.15;;;;;;;7.39;100.00;101799.81;4965961;28;20250;-49
2023/10/16 08:01:17;;;;;;;7.65;2.90;;;;;;;7.25;100.00;101801.72;4967816;28;20686;-49
2023/10/16 08:03:46;;;;;;;6.35;3.72;;;;;;;7.29;100.00;101802.56;4965508;28;20206;-50
2023/10/16 08:06:17;;;;;;;5.60;3.22;;;;;;;7.41;100.00;101806.03;4967829;28;20334;-47
2023/10/16 08:08:49;;;;;;;6.60;5.65;;;;;;;7.55;100.00;101811.22;4965663;28;20182;-47
2023/10/16 08:11:20;;;;;;;6.35;2.65;;;;;;;7.78;100.00;101802.97;4974922;28;20170;-47
2023/10/16 08:13:49;;;;;;;4.13;1.88;;;;;;;8.11;100.00;101806.16;4971816;28;20239;-47
2023/10/16 08:16:21;;;;;;;4.28;2.17;;;;;;;7.95;100.00;101812.56;4967537;28;20209;-48
2023/10/16 08:18:48;;;;;;;6.00;2.70;;;;;;;7.66;100.00;101803.09;4956769;28;20209;-47
2023/10/16 08:21:26;;;;;;;3.58;1.75;;;;;;;7.60;100.00;101806.69;4973948;28;20201;-47
2023/10/16 08:23:58;;;;;;;3.42;1.52;;;;;;;8.15;100.00;101799.84;4967119;28;20708;-46
2023/10/16 08:26:30;;;;;;;3.20;1.73;;;;;;;8.48;100.00;101797.66;4966610;28;20232;-48
2023/10/16 08:29:11;;;;;;;4.70;2.15;;;;;;;8.81;100.00;101785.63;4969761;28;20702;-48
2023/10/16 08:31:41;;;;;;;2.83;1.45;;;;;;;8.76;100.00;101790.13;4966938;28;20197;-48
2023/10/16 08:34:08;;;;;;;2.90;1.60;;;;;;;9.06;100.00;101785.22;4972169;28;20280;-45
2023/10/16 08:36:34;;;;;;;8.65;7.97;;;;;;;9.32;98.24;101775.88;4965063;28;20197;-46
2023/10/16 08:39:08;;;;;;;3.92;3.38;;;;;;;9.77;96.95;101783.94;4968785;28;20233;-46
2023/10/16 08:41:45;;;;;;;10.43;9.38;;;;;;;9.29;95.41;101771.44;4967589;28;20208;-45
2023/10/16 08:44:15;;;;;;;8.18;4.28;;;;;;;9.00;94.79;101770.16;4969282;28;20206;-45
2023/10/16 08:46:44;;;;;;;3.60;1.33;;;;;;;8.94;94.25;101778.28;4961967;28;20194;-47
2023/10/16 08:49:11;;;;;;;4.25;1.45;;;;;;;9.44;93.30;101781.00;4967559;28;20262;-46
2023/10/16 08:51:38;;;;;;;4.45;1.40;;;;;;;9.21;92.66;101782.28;4972196;28;20185;-47
2023/10/16 08:54:05;;;;;;;1.63;1.20;;;;;;;8.91;92.46;101783.69;4970414;28;20217;-46
2023/10/16 08:56:32;;;;;;;9.00;8.20;;;;;;;8.85;92.61;101787.34;4969434;28;20174;-46
2023/10/16 08:59:01;;;;;;;7.22;2.83;;;;;;;9.24;92.78;101782.22;4967064;28;20587;-45
2023/10/16 09:01:28;;;;;;;2.60;2.40;;;;;;;9.36;92.16;101780.22;4965895;28;20197;-46
2023/10/16 09:04:00;;;;;;;4.65;1.75;;;;;;;9.60;92.24;101773.56;4967702;28;20688;-46
2023/10/16 09:06:25;;;;;;;3.85;1.35;;;;;;;9.50;91.71;101780.88;4968495;28;20265;-46
2023/10/16 09:08:54;;;;;;;4.75;1.13;;;;;;;9.33;91.15;101782.97;4968919;28;20277;-46
2023/10/16 09:11:21;;;;;;;3.75;2.30;;;;;;;9.58;90.46;101772.72;4962410;28;20237;-46
2023/10/16 09:13:51;;;;;;;10.73;9.90;;;;;;;9.78;89.85;101770.53;4966001;28;20210;-45
2023/10/16 09:16:30;;;;;;;15.23;14.20;;;;;;;9.52;88.91;101770.16;4957439;28;20228;-47
2023/10/16 09:18:58;;;;;;;7.80;5.07;;;;;;;9.94;88.87;101775.56;4968813;28;20218;-45
2023/10/16 09:21:28;;;;;;;16.48;15.50;;;;;;;9.85;88.21;101764.13;4964796;28;20177;-46
2023/10/16 09:24:00;;;;;;;7.63;7.03;;;;;;;9.86;87.01;101756.97;4962593;28;20260;-47
2023/10/16 09:26:32;;;;;;;2.35;2.20;;;;;;;9.97;86.51;101762.13;4974598;28;20186;-45
2023/10/16 09:29:04;;;;;;;4.95;2.03;;;;;;;10.11;86.23;101771.63;4971534;28;20536;-46
2023/10/16 09:31:31;;;;;;;4.30;1.50;;;;;;;10.09;86.10;101775.25;4967281;28;20177;-48
2023/10/16 09:33:57;;;;;;;5.85;4.35;;;;;;;9.90;84.79;101766.72;4968198;28;20217;-46
2023/10/16 09:36:22;;;;;;;2.88;2.17;;;;;;;10.25;84.13;101763.28;4969027;28;20178;-45
2023/10/16 09:38:53;;;;;;;6.60;4.70;;;;;;;10.26;83.86;101764.19;4967097;28;20203;-47
2023/10/16 09:49:05;;;;;;;3.33;1.58;;;;;;;10.00;81.45;101754.03;4972735;28;20487;-47
2023/10/16 09:51:36;;;;;;;5.57;1.50;;;;;;;9.96;81.88;101760.38;4970799;28;20177;-45
2023/10/16 09:54:02;;;;;;;4.93;1.23;;;;;;;10.19;80.99;101766.13;4950675;28;20276;-46
2023/10/16 09:56:40;;;;;;;3.38;0.63;;;;;;;9.97;80.68;101749.63;4964320;28;20232;-47
2023/10/16 09:59:17;;;;;;;2.40;0.60;;;;;;;9.86;79.69;101759.66;4968580;28;20530;-47
2023/10/16 10:01:44;;;;;;;2.58;0.57;;;;;;;9.85;79.37;101756.09;4964224;28;20614;-47
2023/10/16 10:04:12;;;;;;;7.05;1.20;;;;;;;9.62;78.32;101755.69;4966115;28;20287;-46
2023/10/16 10:06:42;;;;;;;1.88;0.90;;;;;;;10.09;78.10;101749.34;4967712;28;20200;-46
2023/10/16 10:12:08;;;;;;;3.63;0.80;;;;;;;10.35;77.97;101747.94;4966020;28;20252;-46
2023/10/16 10:14:46;;;;;;;1.10;0.45;;;;;;;10.40;77.08;101742.47;4954140;28;20229;-47
2023/10/16 10:17:19;;;;;;;0.98;0.65;;;;;;;10.78;76.09;101730.88;4961515;28;20174;-47
2023/10/16 10:19:54;;;;;;;3.92;0.90;;;;;;;10.48;75.42;101725.31;4949904;28;20253;-46
2023/10/16 10:22:27;;;;;;;2.33;0.80;;;;;;;10.67;75.48;101727.53;4973997;28;20181;-48
2023/10/16 10:25:09;;;;;;;6.28;0.95;;;;;;;10.37;74.77;101724.69;4950254;28;20202;-47
2023/10/16 10:27:41;;;;;;;1.92;1.00;;;;;;;10.47;75.16;101726.25;4952592;28;20175;-48
2023/10/16 10:30:10;;;;;;;3.03;1.55;;;;;;;10.42;75.32;101724.56;4968405;28;20203;-45
2023/10/16 10:32:37;;;;;;;1.88;1.17;;;;;;;10.36;75.39;101725.59;4966961;28;20248;-46
2023/10/16 10:35:38;;;;;;;2.15;0.93;;;;;;;10.45;75.57;101722.72;4961561;28;20194;-47
2023/10/16 10:38:17;;;;;;;3.10;1.50;;;;;;;10.64;75.20;101725.81;4961733;28;20653;-47
2023/10/16 10:41:10;;;;;;;4.30;1.73;;;;;;;10.22;74.30;101708.94;4955107;28;20189;-46
2023/10/16 10:44:21;;;;;;;2.88;2.67;;;;;;;10.27;73.84;101715.06;4965239;28;20199;-47
2023/10/16 10:46:28;;;;;;;9.80;4.57;;;;;;;10.26;73.53;101721.34;4956725;28;20198;-50
2023/10/16 10:48:54;;;;;;;2.92;1.63;;;;;;;10.05;73.72;101717.34;4965647;28;20598;-45
2023/10/16 10:51:21;;;;;;;3.92;3.65;;;;;;;9.96;73.84;101715.72;4988127;23;20218;-46
2023/10/16 10:53:53;;;;;;;3.10;2.08;;;;;;;10.23;73.71;101711.59;4957170;28;20226;-47
2023/10/16 10:56:20;;;;;;;5.80;5.30;;;;;;;10.13;74.10;101717.19;4967965;28;20248;-48
2023/10/16 10:58:47;;;;;;;4.30;1.98;;;;;;;10.23;74.73;101722.31;4966832;28;20656;-48
2023/10/16 11:01:16;;;;;;;6.30;5.80;;;;;;;9.78;74.30;101718.81;4959793;28;20278;-47
2023/10/16 11:03:45;;;;;;;12.43;11.68;;;;;;;9.84;74.62;101721.38;4966915;28;20252;-47
2023/10/16 11:06:22;;;;;;;31.08;28.98;;;;;;;9.69;75.18;101717.22;4973931;28;20636;-48
2023/10/16 11:08:55;;;;;;;23.35;21.75;;;;;;;9.85;75.27;101723.13;4953286;28;20565;-48
2023/10/16 11:11:21;;;;;;;3.95;2.75;;;;;;;10.04;75.26;101728.97;4960562;28;20326;-48
2023/10/16 11:13:48;;;;;;;4.60;1.13;;;;;;;10.49;75.04;101726.19;4969599;28;20209;-48
2023/10/16 11:16:17;;;;;;;5.90;2.63;;;;;;;10.52;74.63;101731.50;4969803;28;20606;-47
2023/10/16 11:19:04;;;;;;;4.82;3.58;;;;;;;10.20;73.67;101705.41;4966718;28;20209;-50
2023/10/16 11:21:29;;;;;;;4.90;1.00;;;;;;;10.66;73.01;101715.06;4967692;28;20277;-49
2023/10/16 11:23:55;;;;;;;5.22;1.60;;;;;;;10.62;72.49;101697.31;4970089;28;20395;-47
2023/10/16 11:26:29;;;;;;;1.73;0.63;;;;;;;10.71;72.48;101699.75;4972258;28;20174;-47
2023/10/16 11:28:55;;;;;;;4.45;1.13;;;;;;;10.59;71.61;101692.91;4967088;28;20178;-47
2023/10/16 11:31:21;;;;;;;1.88;0.77;;;;;;;10.40;71.27;101695.13;4963527;28;20653;-47
2023/10/16 11:34:00;;;;;;;2.75;2.30;;;;;;;9.85;71.24;101691.88;4962183;28;20209;-47
2023/10/16 11:36:28;;;;;;;2.50;2.20;;;;;;;9.64;72.01;101697.66;4966138;28;20248;-48
2023/10/16 11:38:59;;;;;;;13.80;13.00;;;;;;;9.80;72.56;101714.31;4968579;28;20222;-49
2023/10/16 11:41:26;;;;;;;14.27;13.25;;;;;;;9.63;73.15;101726.22;4966778;28;20265;-48
2023/10/16 11:43:52;;;;;;;2.33;2.08;;;;;;;9.89;73.61;101727.50;4968688;28;20691;-49
2023/10/16 11:46:44;;;;;;;4.05;0.95;;;;;;;9.93;74.43;101741.69;4975205;28;20317;-48
2023/10/16 11:51:55;;;;;;;1.77;1.65;;;;;;;9.79;73.37;101720.56;4970720;28;20276;-48
2023/10/16 11:54:23;;;;;;;5.25;1.70;;;;;;;9.93;73.83;101731.88;4971128;28;20695;-49
2023/10/16 11:56:55;;;;;;;3.80;1.92;;;;;;;10.23;74.90;101738.38;4968050;28;20269;-48
2023/10/16 11:59:21;;;;;;;2.33;1.02;;;;;;;10.56;74.68;101748.34;4974962;28;20214;-48
2023/10/16 12:01:53;;;;;;;5.35;1.20;;;;;;;10.07;73.23;101728.91;4966832;28;20174;-49
2023/10/16 12:04:19;;;;;;;9.65;8.82;;;;;;;9.78;72.89;101730.38;4973097;28;20201;-50
2023/10/16 12:06:50;;;;;;;10.10;9.43;;;;;;;9.73;73.01;101728.72;4968598;28;20178;-47
2023/10/16 12:09:19;;;;;;;24.60;23.13;;;;;;;9.67;72.94;101732.41;4973562;28;20182;-47
2023/10/16 12:11:49;;;;;;;1.15;0.73;;;;;;;9.55;72.53;101728.16;4968846;28;20181;-47
2023/10/16 12:14:16;;;;;;;4.47;2.55;;;;;;;9.52;73.19;101738.06;4968116;28;20253;-47
2023/10/16 12:16:45;;;;;;;6.32;3.40;;;;;;;9.40;73.65;101745.41;4968429;28;20196;-47
2023/10/16 12:19:15;;;;;;;2.35;1.00;;;;;;;9.31;73.80;101747.34;4968186;28;20218;-49
2023/10/16 12:21:42;;;;;;;3.60;1.05;;;;;;;9.14;74.55;101745.88;4968400;28;20225;-48
2023/10/16 12:24:10;;;;;;;2.97;1.10;;;;;;;9.24;74.96;101754.59;4969585;28;20578;-46
2023/10/16 12:26:38;;;;;;;4.28;0.90;;;;;;;9.33;75.52;101761.59;4967896;28;20233;-47
2023/10/16 12:29:03;;;;;;;2.05;1.40;;;;;;;9.27;76.13;101758.13;4971700;28;20326;-48
2023/10/16 12:31:30;;;;;;;3.53;1.23;;;;;;;9.53;76.76;101769.25;4974951;28;20312;-48
2023/10/16 12:33:56;;;;;;;4.82;2.03;;;;;;;9.49;76.93;101776.47;4970101;28;20579;-47
2023/10/16 12:36:23;;;;;;;4.85;1.33;;;;;;;9.63;76.89;101784.22;4970889;28;20179;-49
2023/10/16 12:38:50;;;;;;;3.63;1.48;;;;;;;9.97;76.16;101759.44;4970754;28;20186;-46
2023/10/16 12:41:15;;;;;;;2.75;2.05;;;;;;;9.75;75.39;101759.91;4971366;28;20201;-47
2023/10/16 12:43:43;;;;;;;3.50;3.17;;;;;;;9.67;75.07;101757.38;4972803;28;20189;-49
2023/10/16 12:46:08;;;;;;;2.90;1.75;;;;;;;9.56;74.13;101740.66;4971859;28;20193;-51
2023/10/16 12:48:34;;;;;;;3.78;1.50;;;;;;;9.62;74.60;101753.91;4967925;28;20188;-47
2023/10/16 12:50:59;;;;;;;5.70;1.77;;;;;;;9.68;74.65;101748.41;4972941;28;20769;-47
2023/10/16 12:53:31;;;;;;;3.25;2.15;;;;;;;9.64;75.18;101753.84;4972529;28;20194;-50
2023/10/16 12:55:58;;;;;;;4.13;1.15;;;;;;;9.56;75.32;101763.84;4967542;28;20194;-46
2023/10/16 12:58:28;;;;;;;5.18;1.95;;;;;;;9.63;75.04;101758.34;4967956;28;20208;-49
2023/10/16 13:00:58;;;;;;;6.93;4.55;;;;;;;9.47;75.21;101755.06;4966747;28;20208;-47
2023/10/16 13:03:24;;;;;;;9.75;9.13;;;;;;;9.45;75.42;101753.34;4968065;28;20717;-47
2023/10/16 13:05:50;;;;;;;4.88;1.45;;;;;;;9.54;75.66;101763.88;4970418;28;20268;-48
2023/10/16 13:08:22;;;;;;;3.40;2.45;;;;;;;9.63;75.41;101761.00;4970806;28;20692;-49
2023/10/16 13:10:52;;;;;;;5.13;2.38;;;;;;;9.40;75.51;101753.44;4964374;28;20250;-49
2023/10/16 13:13:24;;;;;;;7.80;3.65;;;;;;;9.46;76.04;101758.66;4969190;28;20558;-48
2023/10/16 13:15:51;;;;;;;7.57;5.78;;;;;;;9.58;76.21;101757.56;4967810;28;20471;-47
2023/10/16 13:18:27;;;;;;;5.35;4.85;;;;;;;9.48;76.56;101770.19;4967583;28;20233;-49
2023/10/16 13:21:15;;;;;;;11.15;10.30;;;;;;;9.61;77.01;101778.00;4962377;28;20182;-49